sensor_id;sensor_type;location;lat;lon;timestamp;temperature;humidity
61386;DHT22;47256;18.904;-99.054;2023-02-03T00:02:04;26.60;55.30
61386;DHT22;47256;18.904;-99.054;2023-02-03T00:04:31;26.50;55.90
61386;DHT22;47256;18.904;-99.054;2023-02-03T00:06:59;26.50;56.70
61386;DHT22;47256;18.904;-99.054;2023-02-03T00:09:26;26.40;57.30
61386;DHT22;47256;18.904;-99.054;2023-02-03T00:11:53;26.40;58.50
61386;DHT22;47256;18.904;-99.054;2023-02-03T00:14:21;26.30;59.60
61386;DHT22;47256;18.904;-99.054;2023-02-03T00:16:48;26.20;60.00
61386;DHT22;47256;18.904;-99.054;2023-02-03T00:19:15;26.20;60.20
61386;DHT22;47256;18.904;-99.054;2023-02-03T00:21:43;26.20;60.70
61386;DHT22;47256;18.904;-99.054;2023-02-03T00:24:10;26.10;61.00
61386;DHT22;47256;18.904;-99.054;2023-02-03T00:26:41;26.10;61.80
61386;DHT22;47256;18.904;-99.054;2023-02-03T00:29:09;26.00;63.00
61386;DHT22;47256;18.904;-99.054;2023-02-03T00:31:37;25.90;63.50
61386;DHT22;47256;18.904;-99.054;2023-02-03T00:34:05;25.90;63.20
61386;DHT22;47256;18.904;-99.054;2023-02-03T00:36:32;25.80;62.90
61386;DHT22;47256;18.904;-99.054;2023-02-03T00:39:00;25.80;63.60
61386;DHT22;47256;18.904;-99.054;2023-02-03T00:41:29;25.70;65.50
61386;DHT22;47256;18.904;-99.054;2023-02-03T00:43:57;25.60;64.20
61386;DHT22;47256;18.904;-99.054;2023-02-03T00:46:25;25.50;63.70
61386;DHT22;47256;18.904;-99.054;2023-02-03T00:48:52;25.50;63.20
61386;DHT22;47256;18.904;-99.054;2023-02-03T00:51:22;25.40;63.40
61386;DHT22;47256;18.904;-99.054;2023-02-03T00:53:50;25.40;63.50
61386;DHT22;47256;18.904;-99.054;2023-02-03T00:56:17;25.30;64.40
61386;DHT22;47256;18.904;-99.054;2023-02-03T00:58:44;25.30;64.80
61386;DHT22;47256;18.904;-99.054;2023-02-03T01:01:12;25.20;65.00
61386;DHT22;47256;18.904;-99.054;2023-02-03T01:03:39;25.20;66.80
61386;DHT22;47256;18.904;-99.054;2023-02-03T01:06:18;25.10;65.10
61386;DHT22;47256;18.904;-99.054;2023-02-03T01:08:47;25.00;64.80
61386;DHT22;47256;18.904;-99.054;2023-02-03T01:11:21;25.00;64.20
61386;DHT22;47256;18.904;-99.054;2023-02-03T01:13:49;25.00;64.70
61386;DHT22;47256;18.904;-99.054;2023-02-03T01:16:19;24.90;65.50
61386;DHT22;47256;18.904;-99.054;2023-02-03T01:18:47;24.90;65.50
61386;DHT22;47256;18.904;-99.054;2023-02-03T01:21:19;24.80;65.40
61386;DHT22;47256;18.904;-99.054;2023-02-03T01:23:47;24.80;66.60
61386;DHT22;47256;18.904;-99.054;2023-02-03T01:26:17;24.70;66.80
61386;DHT22;47256;18.904;-99.054;2023-02-03T01:28:52;24.60;66.90
61386;DHT22;47256;18.904;-99.054;2023-02-03T01:31:23;24.60;66.40
61386;DHT22;47256;18.904;-99.054;2023-02-03T01:33:52;24.50;67.60
61386;DHT22;47256;18.904;-99.054;2023-02-03T01:36:21;24.40;67.70
61386;DHT22;47256;18.904;-99.054;2023-02-03T01:38:49;24.30;66.30
61386;DHT22;47256;18.904;-99.054;2023-02-03T01:41:23;24.20;66.50
61386;DHT22;47256;18.904;-99.054;2023-02-03T01:43:52;24.20;65.70
61386;DHT22;47256;18.904;-99.054;2023-02-03T01:46:43;24.20;65.70
61386;DHT22;47256;18.904;-99.054;2023-02-03T01:49:26;24.20;65.40
61386;DHT22;47256;18.904;-99.054;2023-02-03T01:51:56;24.20;65.20
61386;DHT22;47256;18.904;-99.054;2023-02-03T01:54:29;24.10;66.80
61386;DHT22;47256;18.904;-99.054;2023-02-03T01:57:09;24.10;67.20
61386;DHT22;47256;18.904;-99.054;2023-02-03T01:59:39;24.10;66.50
61386;DHT22;47256;18.904;-99.054;2023-02-03T02:02:07;24.00;67.20
61386;DHT22;47256;18.904;-99.054;2023-02-03T02:07:20;23.90;68.90
61386;DHT22;47256;18.904;-99.054;2023-02-03T02:09:48;23.80;68.50
61386;DHT22;47256;18.904;-99.054;2023-02-03T02:12:16;23.70;68.00
61386;DHT22;47256;18.904;-99.054;2023-02-03T02:14:44;23.60;69.00
61386;DHT22;47256;18.904;-99.054;2023-02-03T02:17:35;23.60;67.30
61386;DHT22;47256;18.904;-99.054;2023-02-03T02:34:06;23.60;69.90
61386;DHT22;47256;18.904;-99.054;2023-02-03T02:37:17;23.40;71.00
61386;DHT22;47256;18.904;-99.054;2023-02-03T02:45:40;23.10;69.50
61386;DHT22;47256;18.904;-99.054;2023-02-03T02:48:28;23.10;70.90
61386;DHT22;47256;18.904;-99.054;2023-02-03T02:51:00;23.10;71.80
61386;DHT22;47256;18.904;-99.054;2023-02-03T02:53:32;23.00;71.90
61386;DHT22;47256;18.904;-99.054;2023-02-03T02:56:05;23.00;72.10
61386;DHT22;47256;18.904;-99.054;2023-02-03T02:58:36;23.00;72.50
61386;DHT22;47256;18.904;-99.054;2023-02-03T03:01:07;22.90;72.20
61386;DHT22;47256;18.904;-99.054;2023-02-03T03:03:38;22.90;70.60
61386;DHT22;47256;18.904;-99.054;2023-02-03T03:06:23;22.90;71.00
61386;DHT22;47256;18.904;-99.054;2023-02-03T03:09:12;23.00;72.40
61386;DHT22;47256;18.904;-99.054;2023-02-03T03:11:55;22.90;71.60
61386;DHT22;47256;18.904;-99.054;2023-02-03T03:14:25;22.80;74.20
61386;DHT22;47256;18.904;-99.054;2023-02-03T03:16:58;22.60;73.60
61386;DHT22;47256;18.904;-99.054;2023-02-03T03:19:30;22.50;73.40
61386;DHT22;47256;18.904;-99.054;2023-02-03T03:22:03;22.40;71.90
61386;DHT22;47256;18.904;-99.054;2023-02-03T03:24:47;22.50;71.40
61386;DHT22;47256;18.904;-99.054;2023-02-03T03:27:24;22.60;72.60
61386;DHT22;47256;18.904;-99.054;2023-02-03T03:30:09;22.60;71.80
61386;DHT22;47256;18.904;-99.054;2023-02-03T03:32:38;22.70;73.60
61386;DHT22;47256;18.904;-99.054;2023-02-03T03:35:06;22.60;73.90
61386;DHT22;47256;18.904;-99.054;2023-02-03T03:37:41;22.50;74.10
61386;DHT22;47256;18.904;-99.054;2023-02-03T03:40:19;22.40;73.60
61386;DHT22;47256;18.904;-99.054;2023-02-03T03:42:57;22.30;74.30
61386;DHT22;47256;18.904;-99.054;2023-02-03T03:45:31;22.30;74.00
61386;DHT22;47256;18.904;-99.054;2023-02-03T03:48:28;22.20;74.60
61386;DHT22;47256;18.904;-99.054;2023-02-03T03:51:04;22.30;76.40
61386;DHT22;47256;18.904;-99.054;2023-02-03T03:53:37;22.30;73.60
61386;DHT22;47256;18.904;-99.054;2023-02-03T03:56:08;22.30;73.40
61386;DHT22;47256;18.904;-99.054;2023-02-03T03:58:42;22.40;73.90
61386;DHT22;47256;18.904;-99.054;2023-02-03T04:01:14;22.40;74.30
61386;DHT22;47256;18.904;-99.054;2023-02-03T04:03:51;22.40;74.60
61386;DHT22;47256;18.904;-99.054;2023-02-03T04:06:20;22.30;75.40
61386;DHT22;47256;18.904;-99.054;2023-02-03T04:08:47;22.30;75.70
61386;DHT22;47256;18.904;-99.054;2023-02-03T04:11:15;22.20;74.70
61386;DHT22;47256;18.904;-99.054;2023-02-03T04:14:02;22.20;73.90
61386;DHT22;47256;18.904;-99.054;2023-02-03T04:16:30;22.20;74.00
61386;DHT22;47256;18.904;-99.054;2023-02-03T04:18:58;22.10;74.10
61386;DHT22;47256;18.904;-99.054;2023-02-03T04:21:26;22.10;73.80
61386;DHT22;47256;18.904;-99.054;2023-02-03T04:23:54;22.10;73.20
61386;DHT22;47256;18.904;-99.054;2023-02-03T04:26:22;22.10;73.40
61386;DHT22;47256;18.904;-99.054;2023-02-03T04:28:54;21.90;73.00
61386;DHT22;47256;18.904;-99.054;2023-02-03T04:31:21;21.90;73.00
61386;DHT22;47256;18.904;-99.054;2023-02-03T04:33:48;21.90;74.40
61386;DHT22;47256;18.904;-99.054;2023-02-03T04:36:16;21.80;74.20
61386;DHT22;47256;18.904;-99.054;2023-02-03T04:38:43;21.60;75.40
61386;DHT22;47256;18.904;-99.054;2023-02-03T04:41:11;21.50;76.00
61386;DHT22;47256;18.904;-99.054;2023-02-03T04:43:38;21.50;75.30
61386;DHT22;47256;18.904;-99.054;2023-02-03T04:46:05;21.40;75.60
61386;DHT22;47256;18.904;-99.054;2023-02-03T04:48:32;21.40;75.20
61386;DHT22;47256;18.904;-99.054;2023-02-03T04:51:01;21.40;74.60
61386;DHT22;47256;18.904;-99.054;2023-02-03T04:53:30;21.40;74.80
61386;DHT22;47256;18.904;-99.054;2023-02-03T04:55:57;21.50;73.70
61386;DHT22;47256;18.904;-99.054;2023-02-03T04:58:25;21.40;72.80
61386;DHT22;47256;18.904;-99.054;2023-02-03T05:00:53;21.40;73.10
61386;DHT22;47256;18.904;-99.054;2023-02-03T05:03:20;21.40;73.50
61386;DHT22;47256;18.904;-99.054;2023-02-03T05:05:49;21.50;73.40
61386;DHT22;47256;18.904;-99.054;2023-02-03T05:08:16;21.40;74.70
61386;DHT22;47256;18.904;-99.054;2023-02-03T05:10:44;21.30;73.90
61386;DHT22;47256;18.904;-99.054;2023-02-03T05:13:12;21.30;74.80
61386;DHT22;47256;18.904;-99.054;2023-02-03T05:15:39;21.20;73.50
61386;DHT22;47256;18.904;-99.054;2023-02-03T05:18:06;21.20;73.40
61386;DHT22;47256;18.904;-99.054;2023-02-03T05:20:34;21.20;74.30
61386;DHT22;47256;18.904;-99.054;2023-02-03T05:23:01;21.20;73.40
61386;DHT22;47256;18.904;-99.054;2023-02-03T05:25:29;21.30;74.50
61386;DHT22;47256;18.904;-99.054;2023-02-03T05:27:56;21.20;74.10
61386;DHT22;47256;18.904;-99.054;2023-02-03T05:30:25;21.10;73.90
61386;DHT22;47256;18.904;-99.054;2023-02-03T05:32:52;21.10;74.40
61386;DHT22;47256;18.904;-99.054;2023-02-03T05:35:20;21.10;73.70
61386;DHT22;47256;18.904;-99.054;2023-02-03T05:37:47;21.00;74.40
61386;DHT22;47256;18.904;-99.054;2023-02-03T05:40:15;21.00;73.60
61386;DHT22;47256;18.904;-99.054;2023-02-03T05:43:00;21.00;73.90
61386;DHT22;47256;18.904;-99.054;2023-02-03T05:45:28;20.90;73.40
61386;DHT22;47256;18.904;-99.054;2023-02-03T05:47:56;20.90;74.10
61386;DHT22;47256;18.904;-99.054;2023-02-03T05:50:24;20.90;74.40
61386;DHT22;47256;18.904;-99.054;2023-02-03T05:53:07;20.90;74.60
61386;DHT22;47256;18.904;-99.054;2023-02-03T05:55:35;20.90;74.70
61386;DHT22;47256;18.904;-99.054;2023-02-03T05:58:02;20.90;75.30
61386;DHT22;47256;18.904;-99.054;2023-02-03T06:00:31;20.80;75.20
61386;DHT22;47256;18.904;-99.054;2023-02-03T06:03:00;20.80;75.60
61386;DHT22;47256;18.904;-99.054;2023-02-03T06:05:30;20.60;77.00
61386;DHT22;47256;18.904;-99.054;2023-02-03T06:07:58;20.50;76.40
61386;DHT22;47256;18.904;-99.054;2023-02-03T06:10:26;20.60;75.90
61386;DHT22;47256;18.904;-99.054;2023-02-03T06:12:53;20.60;76.90
61386;DHT22;47256;18.904;-99.054;2023-02-03T06:15:20;20.60;77.00
61386;DHT22;47256;18.904;-99.054;2023-02-03T06:17:48;20.60;76.50
61386;DHT22;47256;18.904;-99.054;2023-02-03T06:20:18;20.60;77.00
61386;DHT22;47256;18.904;-99.054;2023-02-03T06:22:45;20.70;77.30
61386;DHT22;47256;18.904;-99.054;2023-02-03T06:25:13;20.60;77.20
61386;DHT22;47256;18.904;-99.054;2023-02-03T06:27:41;20.60;77.30
61386;DHT22;47256;18.904;-99.054;2023-02-03T06:30:09;20.50;77.90
61386;DHT22;47256;18.904;-99.054;2023-02-03T06:32:37;20.50;78.60
61386;DHT22;47256;18.904;-99.054;2023-02-03T06:35:04;20.50;79.20
61386;DHT22;47256;18.904;-99.054;2023-02-03T06:37:31;20.40;79.30
61386;DHT22;47256;18.904;-99.054;2023-02-03T06:39:59;20.40;80.00
61386;DHT22;47256;18.904;-99.054;2023-02-03T06:42:26;20.40;78.90
61386;DHT22;47256;18.904;-99.054;2023-02-03T06:44:53;20.40;78.90
61386;DHT22;47256;18.904;-99.054;2023-02-03T06:47:20;20.30;79.10
61386;DHT22;47256;18.904;-99.054;2023-02-03T06:49:48;20.20;78.70
61386;DHT22;47256;18.904;-99.054;2023-02-03T06:52:15;20.20;79.10
61386;DHT22;47256;18.904;-99.054;2023-02-03T06:54:42;20.20;79.40
61386;DHT22;47256;18.904;-99.054;2023-02-03T06:57:10;20.10;79.50
61386;DHT22;47256;18.904;-99.054;2023-02-03T06:59:37;20.10;78.90
61386;DHT22;47256;18.904;-99.054;2023-02-03T07:02:04;20.10;79.70
61386;DHT22;47256;18.904;-99.054;2023-02-03T07:04:31;20.00;80.60
61386;DHT22;47256;18.904;-99.054;2023-02-03T07:06:58;19.70;81.10
61386;DHT22;47256;18.904;-99.054;2023-02-03T07:09:26;19.70;81.70
61386;DHT22;47256;18.904;-99.054;2023-02-03T07:11:53;19.70;81.50
61386;DHT22;47256;18.904;-99.054;2023-02-03T07:14:20;19.70;81.90
61386;DHT22;47256;18.904;-99.054;2023-02-03T07:16:47;19.70;82.40
61386;DHT22;47256;18.904;-99.054;2023-02-03T07:19:14;19.70;82.80
61386;DHT22;47256;18.904;-99.054;2023-02-03T07:21:42;19.70;82.90
61386;DHT22;47256;18.904;-99.054;2023-02-03T07:24:09;19.70;82.40
61386;DHT22;47256;18.904;-99.054;2023-02-03T07:26:37;19.70;82.70
61386;DHT22;47256;18.904;-99.054;2023-02-03T07:29:05;19.80;82.50
61386;DHT22;47256;18.904;-99.054;2023-02-03T07:31:32;19.70;82.60
61386;DHT22;47256;18.904;-99.054;2023-02-03T07:34:01;19.70;83.20
61386;DHT22;47256;18.904;-99.054;2023-02-03T07:36:28;19.70;82.30
61386;DHT22;47256;18.904;-99.054;2023-02-03T07:38:56;19.70;82.30
61386;DHT22;47256;18.904;-99.054;2023-02-03T07:41:24;19.70;82.20
61386;DHT22;47256;18.904;-99.054;2023-02-03T07:43:51;19.60;82.60
61386;DHT22;47256;18.904;-99.054;2023-02-03T07:46:18;19.50;83.20
61386;DHT22;47256;18.904;-99.054;2023-02-03T07:48:46;19.40;82.80
61386;DHT22;47256;18.904;-99.054;2023-02-03T07:51:13;19.30;82.90
61386;DHT22;47256;18.904;-99.054;2023-02-03T07:53:40;19.40;82.90
61386;DHT22;47256;18.904;-99.054;2023-02-03T07:56:07;19.40;82.40
61386;DHT22;47256;18.904;-99.054;2023-02-03T07:58:35;19.30;82.90
61386;DHT22;47256;18.904;-99.054;2023-02-03T08:01:10;19.30;83.70
61386;DHT22;47256;18.904;-99.054;2023-02-03T08:03:38;19.30;83.70
61386;DHT22;47256;18.904;-99.054;2023-02-03T08:06:06;19.20;83.90
61386;DHT22;47256;18.904;-99.054;2023-02-03T08:08:34;19.10;81.00
61386;DHT22;47256;18.904;-99.054;2023-02-03T08:11:01;19.10;83.10
61386;DHT22;47256;18.904;-99.054;2023-02-03T08:13:29;19.20;82.80
61386;DHT22;47256;18.904;-99.054;2023-02-03T08:15:56;19.20;82.40
61386;DHT22;47256;18.904;-99.054;2023-02-03T08:18:23;19.30;81.60
61386;DHT22;47256;18.904;-99.054;2023-02-03T08:20:51;19.30;81.60
61386;DHT22;47256;18.904;-99.054;2023-02-03T08:23:18;19.20;81.30
61386;DHT22;47256;18.904;-99.054;2023-02-03T08:25:50;19.10;81.90
61386;DHT22;47256;18.904;-99.054;2023-02-03T08:28:18;19.20;82.30
61386;DHT22;47256;18.904;-99.054;2023-02-03T08:30:45;19.10;82.10
61386;DHT22;47256;18.904;-99.054;2023-02-03T08:33:13;19.10;81.90
61386;DHT22;47256;18.904;-99.054;2023-02-03T08:35:43;19.10;81.60
61386;DHT22;47256;18.904;-99.054;2023-02-03T08:38:11;19.00;80.90
61386;DHT22;47256;18.904;-99.054;2023-02-03T08:40:38;19.00;80.90
61386;DHT22;47256;18.904;-99.054;2023-02-03T08:43:06;19.00;81.00
61386;DHT22;47256;18.904;-99.054;2023-02-03T08:45:33;19.00;81.50
61386;DHT22;47256;18.904;-99.054;2023-02-03T08:48:01;19.00;81.40
61386;DHT22;47256;18.904;-99.054;2023-02-03T08:50:28;19.00;81.00
61386;DHT22;47256;18.904;-99.054;2023-02-03T08:52:55;18.90;82.10
61386;DHT22;47256;18.904;-99.054;2023-02-03T08:55:23;18.90;81.80
61386;DHT22;47256;18.904;-99.054;2023-02-03T08:57:50;18.90;82.30
61386;DHT22;47256;18.904;-99.054;2023-02-03T09:00:18;19.00;82.70
61386;DHT22;47256;18.904;-99.054;2023-02-03T09:02:45;19.00;82.80
61386;DHT22;47256;18.904;-99.054;2023-02-03T09:05:12;18.70;82.70
61386;DHT22;47256;18.904;-99.054;2023-02-03T09:07:41;18.40;84.10
61386;DHT22;47256;18.904;-99.054;2023-02-03T09:10:09;18.40;84.50
61386;DHT22;47256;18.904;-99.054;2023-02-03T09:12:36;18.50;83.70
61386;DHT22;47256;18.904;-99.054;2023-02-03T09:15:04;18.50;84.20
61386;DHT22;47256;18.904;-99.054;2023-02-03T09:17:31;18.50;83.80
61386;DHT22;47256;18.904;-99.054;2023-02-03T09:19:58;18.60;84.00
61386;DHT22;47256;18.904;-99.054;2023-02-03T09:22:26;18.60;83.80
61386;DHT22;47256;18.904;-99.054;2023-02-03T09:24:53;18.40;85.50
61386;DHT22;47256;18.904;-99.054;2023-02-03T09:27:21;18.40;84.50
61386;DHT22;47256;18.904;-99.054;2023-02-03T09:29:48;18.40;84.10
61386;DHT22;47256;18.904;-99.054;2023-02-03T09:32:15;18.40;83.90
61386;DHT22;47256;18.904;-99.054;2023-02-03T09:34:42;18.30;84.00
61386;DHT22;47256;18.904;-99.054;2023-02-03T09:37:10;18.30;83.70
61386;DHT22;47256;18.904;-99.054;2023-02-03T09:39:37;18.30;84.10
61386;DHT22;47256;18.904;-99.054;2023-02-03T09:42:10;18.20;83.50
61386;DHT22;47256;18.904;-99.054;2023-02-03T09:47:43;18.20;81.50
61386;DHT22;47256;18.904;-99.054;2023-02-03T09:50:29;18.10;81.80
61386;DHT22;47256;18.904;-99.054;2023-02-03T09:52:58;18.20;82.30
61386;DHT22;47256;18.904;-99.054;2023-02-03T09:55:40;18.20;82.50
61386;DHT22;47256;18.904;-99.054;2023-02-03T09:58:16;18.20;81.90
61386;DHT22;47256;18.904;-99.054;2023-02-03T10:00:48;18.10;81.40
61386;DHT22;47256;18.904;-99.054;2023-02-03T10:06:08;18.20;82.50
61386;DHT22;47256;18.904;-99.054;2023-02-03T10:20:02;18.00;81.70
61386;DHT22;47256;18.904;-99.054;2023-02-03T10:22:47;18.10;83.90
61386;DHT22;47256;18.904;-99.054;2023-02-03T10:28:19;18.10;81.30
61386;DHT22;47256;18.904;-99.054;2023-02-03T10:30:57;18.10;81.60
61386;DHT22;47256;18.904;-99.054;2023-02-03T10:33:27;18.10;81.60
61386;DHT22;47256;18.904;-99.054;2023-02-03T10:38:58;18.10;80.60
61386;DHT22;47256;18.904;-99.054;2023-02-03T10:41:29;18.20;81.40
61386;DHT22;47256;18.904;-99.054;2023-02-03T10:43:57;18.20;80.60
61386;DHT22;47256;18.904;-99.054;2023-02-03T10:46:35;18.20;81.10
61386;DHT22;47256;18.904;-99.054;2023-02-03T10:49:04;18.20;81.60
61386;DHT22;47256;18.904;-99.054;2023-02-03T10:51:52;18.10;81.40
61386;DHT22;47256;18.904;-99.054;2023-02-03T10:54:33;18.10;81.60
61386;DHT22;47256;18.904;-99.054;2023-02-03T10:57:12;18.00;82.20
61386;DHT22;47256;18.904;-99.054;2023-02-03T10:59:45;18.00;82.40
61386;DHT22;47256;18.904;-99.054;2023-02-03T11:02:33;18.00;83.00
61386;DHT22;47256;18.904;-99.054;2023-02-03T11:07:44;18.10;82.80
61386;DHT22;47256;18.904;-99.054;2023-02-03T11:10:38;18.00;83.90
61386;DHT22;47256;18.904;-99.054;2023-02-03T11:13:22;18.00;83.00
61386;DHT22;47256;18.904;-99.054;2023-02-03T11:18:35;18.00;82.50
61386;DHT22;47256;18.904;-99.054;2023-02-03T11:23:55;17.80;83.20
61386;DHT22;47256;18.904;-99.054;2023-02-03T11:27:28;17.80;84.00
61386;DHT22;47256;18.904;-99.054;2023-02-03T11:29:31;17.90;84.30
61386;DHT22;47256;18.904;-99.054;2023-02-03T11:32:03;17.90;84.30
61386;DHT22;47256;18.904;-99.054;2023-02-03T11:34:36;17.90;83.40
61386;DHT22;47256;18.904;-99.054;2023-02-03T11:37:37;17.80;84.40
61386;DHT22;47256;18.904;-99.054;2023-02-03T11:42:40;17.80;84.90
61386;DHT22;47256;18.904;-99.054;2023-02-03T11:47:50;17.70;85.80
61386;DHT22;47256;18.904;-99.054;2023-02-03T11:53:21;17.70;86.50
61386;DHT22;47256;18.904;-99.054;2023-02-03T11:56:24;17.70;86.60
61386;DHT22;47256;18.904;-99.054;2023-02-03T12:05:03;17.60;87.30
61386;DHT22;47256;18.904;-99.054;2023-02-03T12:12:47;17.60;86.60
61386;DHT22;47256;18.904;-99.054;2023-02-03T12:15:34;17.50;87.50
61386;DHT22;47256;18.904;-99.054;2023-02-03T12:29:29;17.50;86.60
61386;DHT22;47256;18.904;-99.054;2023-02-03T12:35:35;17.30;87.50
61386;DHT22;47256;18.904;-99.054;2023-02-03T12:38:37;17.20;87.50
61386;DHT22;47256;18.904;-99.054;2023-02-03T12:41:21;17.20;86.90
61386;DHT22;47256;18.904;-99.054;2023-02-03T12:43:53;17.30;86.90
61386;DHT22;47256;18.904;-99.054;2023-02-03T12:50:02;17.30;87.20
61386;DHT22;47256;18.904;-99.054;2023-02-03T12:52:16;17.10;86.70
61386;DHT22;47256;18.904;-99.054;2023-02-03T12:54:52;17.00;87.70
61386;DHT22;47256;18.904;-99.054;2023-02-03T13:00:12;17.00;88.30
61386;DHT22;47256;18.904;-99.054;2023-02-03T13:11:37;17.00;88.00
61386;DHT22;47256;18.904;-99.054;2023-02-03T13:14:27;17.10;89.60
61386;DHT22;47256;18.904;-99.054;2023-02-03T13:17:05;17.10;88.70
61386;DHT22;47256;18.904;-99.054;2023-02-03T13:19:59;16.90;87.10
61386;DHT22;47256;18.904;-99.054;2023-02-03T13:22:28;16.80;89.10
61386;DHT22;47256;18.904;-99.054;2023-02-03T13:25:07;16.80;87.80
61386;DHT22;47256;18.904;-99.054;2023-02-03T13:39:09;16.90;89.30
61386;DHT22;47256;18.904;-99.054;2023-02-03T13:41:41;17.00;89.30
61386;DHT22;47256;18.904;-99.054;2023-02-03T13:44:12;16.90;88.70
61386;DHT22;47256;18.904;-99.054;2023-02-03T13:46:45;17.00;88.30
61386;DHT22;47256;18.904;-99.054;2023-02-03T13:49:28;17.00;88.30
61386;DHT22;47256;18.904;-99.054;2023-02-03T13:51:57;17.10;88.10
61386;DHT22;47256;18.904;-99.054;2023-02-03T13:54:29;17.10;87.20
61386;DHT22;47256;18.904;-99.054;2023-02-03T13:57:03;17.10;88.50
61386;DHT22;47256;18.904;-99.054;2023-02-03T13:59:42;17.20;88.90
61386;DHT22;47256;18.904;-99.054;2023-02-03T14:04:58;17.30;86.80
61386;DHT22;47256;18.904;-99.054;2023-02-03T14:15:28;17.50;87.90
61386;DHT22;47256;18.904;-99.054;2023-02-03T14:20:45;17.70;89.70
61386;DHT22;47256;18.904;-99.054;2023-02-03T14:23:33;17.80;88.80
61386;DHT22;47256;18.904;-99.054;2023-02-03T14:26:04;18.00;89.20
61386;DHT22;47256;18.904;-99.054;2023-02-03T14:28:43;18.10;87.80
61386;DHT22;47256;18.904;-99.054;2023-02-03T14:31:18;18.20;87.20
61386;DHT22;47256;18.904;-99.054;2023-02-03T14:36:40;18.40;87.80
61386;DHT22;47256;18.904;-99.054;2023-02-03T14:42:13;18.70;88.00
61386;DHT22;47256;18.904;-99.054;2023-02-03T14:58:40;19.60;84.60
61386;DHT22;47256;18.904;-99.054;2023-02-03T15:06:39;20.10;84.20
61386;DHT22;47256;18.904;-99.054;2023-02-03T15:11:50;20.40;85.50
61386;DHT22;47256;18.904;-99.054;2023-02-03T15:14:21;20.50;85.10
61386;DHT22;47256;18.904;-99.054;2023-02-03T15:17:00;20.60;84.60
61386;DHT22;47256;18.904;-99.054;2023-02-03T15:19:34;20.70;82.60
61386;DHT22;47256;18.904;-99.054;2023-02-03T15:22:15;20.90;83.00
61386;DHT22;47256;18.904;-99.054;2023-02-03T15:24:43;21.10;81.40
61386;DHT22;47256;18.904;-99.054;2023-02-03T15:27:28;21.20;80.60
61386;DHT22;47256;18.904;-99.054;2023-02-03T15:29:55;21.40;79.70
61386;DHT22;47256;18.904;-99.054;2023-02-03T15:32:30;21.60;77.20
61386;DHT22;47256;18.904;-99.054;2023-02-03T15:35:01;21.70;75.90
61386;DHT22;47256;18.904;-99.054;2023-02-03T15:40:00;22.00;75.10
61386;DHT22;47256;18.904;-99.054;2023-02-03T15:42:36;22.20;75.90
61386;DHT22;47256;18.904;-99.054;2023-02-03T15:48:03;22.40;74.70
61386;DHT22;47256;18.904;-99.054;2023-02-03T15:50:54;22.60;76.10
61386;DHT22;47256;18.904;-99.054;2023-02-03T15:53:31;22.80;76.70
61386;DHT22;47256;18.904;-99.054;2023-02-03T15:56:02;22.90;72.70
61386;DHT22;47256;18.904;-99.054;2023-02-03T15:58:44;23.00;73.30
61386;DHT22;47256;18.904;-99.054;2023-02-03T16:43:54;25.00;66.40
61386;DHT22;47256;18.904;-99.054;2023-02-03T16:46:41;25.00;65.50
61386;DHT22;47256;18.904;-99.054;2023-02-03T16:49:27;25.20;67.50
61386;DHT22;47256;18.904;-99.054;2023-02-03T16:52:13;25.30;65.40
61386;DHT22;47256;18.904;-99.054;2023-02-03T16:54:41;25.30;62.50
61386;DHT22;47256;18.904;-99.054;2023-02-03T16:57:08;25.30;61.50
61386;DHT22;47256;18.904;-99.054;2023-02-03T16:59:36;25.30;61.90
61386;DHT22;47256;18.904;-99.054;2023-02-03T17:02:03;25.50;64.40
61386;DHT22;47256;18.904;-99.054;2023-02-03T17:04:32;25.60;63.20
61386;DHT22;47256;18.904;-99.054;2023-02-03T17:06:59;25.90;64.50
61386;DHT22;47256;18.904;-99.054;2023-02-03T17:09:28;26.00;62.60
61386;DHT22;47256;18.904;-99.054;2023-02-03T17:12:01;26.00;60.20
61386;DHT22;47256;18.904;-99.054;2023-02-03T17:14:29;26.00;62.20
61386;DHT22;47256;18.904;-99.054;2023-02-03T17:16:57;26.20;60.40
61386;DHT22;47256;18.904;-99.054;2023-02-03T17:19:24;26.40;62.50
61386;DHT22;47256;18.904;-99.054;2023-02-03T17:21:51;26.40;59.70
61386;DHT22;47256;18.904;-99.054;2023-02-03T17:24:18;26.50;59.20
61386;DHT22;47256;18.904;-99.054;2023-02-03T17:26:46;26.60;59.60
61386;DHT22;47256;18.904;-99.054;2023-02-03T17:29:14;26.70;58.40
61386;DHT22;47256;18.904;-99.054;2023-02-03T17:31:42;26.80;59.00
61386;DHT22;47256;18.904;-99.054;2023-02-03T17:34:09;26.80;58.00
61386;DHT22;47256;18.904;-99.054;2023-02-03T17:36:36;26.90;58.00
61386;DHT22;47256;18.904;-99.054;2023-02-03T17:39:03;27.00;57.10
61386;DHT22;47256;18.904;-99.054;2023-02-03T17:41:31;27.10;57.90
61386;DHT22;47256;18.904;-99.054;2023-02-03T17:43:58;27.20;56.60
61386;DHT22;47256;18.904;-99.054;2023-02-03T17:46:26;27.30;57.30
61386;DHT22;47256;18.904;-99.054;2023-02-03T17:48:55;27.40;57.80
61386;DHT22;47256;18.904;-99.054;2023-02-03T17:51:24;27.50;57.30
61386;DHT22;47256;18.904;-99.054;2023-02-03T17:53:55;27.50;56.80
61386;DHT22;47256;18.904;-99.054;2023-02-03T17:56:24;27.50;56.10
61386;DHT22;47256;18.904;-99.054;2023-02-03T17:58:59;27.60;56.50
61386;DHT22;47256;18.904;-99.054;2023-02-03T18:01:28;27.50;55.50
61386;DHT22;47256;18.904;-99.054;2023-02-03T18:03:59;27.60;55.80
61386;DHT22;47256;18.904;-99.054;2023-02-03T18:06:29;27.60;55.50
61386;DHT22;47256;18.904;-99.054;2023-02-03T18:08:56;27.70;55.80
61386;DHT22;47256;18.904;-99.054;2023-02-03T18:11:31;27.80;56.00
61386;DHT22;47256;18.904;-99.054;2023-02-03T18:13:59;28.00;53.60
61386;DHT22;47256;18.904;-99.054;2023-02-03T18:16:29;28.00;56.50
61386;DHT22;47256;18.904;-99.054;2023-02-03T18:19:02;28.00;55.70
61386;DHT22;47256;18.904;-99.054;2023-02-03T18:21:30;28.00;54.90
61386;DHT22;47256;18.904;-99.054;2023-02-03T18:23:58;28.00;55.60
61386;DHT22;47256;18.904;-99.054;2023-02-03T18:26:29;28.10;55.30
61386;DHT22;47256;18.904;-99.054;2023-02-03T18:29:01;28.10;53.70
61386;DHT22;47256;18.904;-99.054;2023-02-03T18:31:29;27.90;53.80
61386;DHT22;47256;18.904;-99.054;2023-02-03T18:34:01;28.10;54.70
61386;DHT22;47256;18.904;-99.054;2023-02-03T18:36:29;28.30;55.70
61386;DHT22;47256;18.904;-99.054;2023-02-03T18:38:57;28.50;52.70
61386;DHT22;47256;18.904;-99.054;2023-02-03T18:41:26;28.40;54.00
61386;DHT22;47256;18.904;-99.054;2023-02-03T18:43:53;28.40;52.60
61386;DHT22;47256;18.904;-99.054;2023-02-03T18:46:26;28.40;56.00
61386;DHT22;47256;18.904;-99.054;2023-02-03T18:48:55;28.50;55.50
61386;DHT22;47256;18.904;-99.054;2023-02-03T18:51:23;28.50;54.00
61386;DHT22;47256;18.904;-99.054;2023-02-03T18:53:54;28.50;56.20